createdAt,value
2019-05-18T00:01:07.614Z,99209.38
2019-05-18T00:03:36.052Z,99216.21
2019-05-18T00:06:04.757Z,99214.61
2019-05-18T00:08:33.268Z,99221.27
2019-05-18T00:11:01.675Z,99218.27
2019-05-18T00:13:30.140Z,99216.64
2019-05-18T00:15:58.617Z,99219.42
2019-05-18T00:18:27.043Z,99225.27
2019-05-18T00:20:55.632Z,99216.81
2019-05-18T00:23:24.064Z,99219.56
2019-05-18T00:25:52.499Z,99214.03
2019-05-18T00:28:20.982Z,99213.63
2019-05-18T00:30:49.455Z,99207.58
2019-05-18T00:33:18.090Z,99213.20
2019-05-18T00:35:46.621Z,99204.67
2019-05-18T00:38:15.120Z,99200.55
2019-05-18T00:40:43.555Z,99194.03
2019-05-18T00:43:12.192Z,99194.48
2019-05-18T00:45:40.623Z,99191.28
2019-05-18T00:48:09.055Z,99188.35
2019-05-18T00:50:37.514Z,99182.22
2019-05-18T00:53:05.955Z,99183.69
2019-05-18T00:55:34.525Z,99185.95
2019-05-18T00:58:03.073Z,99193.34
2019-05-18T01:00:31.656Z,99193.36
2019-05-18T01:03:00.095Z,99192.58
2019-05-18T01:05:28.712Z,99199.54
2019-05-18T01:07:57.136Z,99199.18
2019-05-18T01:10:25.728Z,99199.93
2019-05-18T01:12:54.273Z,99197.27
2019-05-18T01:15:22.766Z,99192.53
2019-05-18T01:17:57.286Z,99195.59
2019-05-18T01:20:21.813Z,99201.30
2019-05-18T01:22:50.326Z,99199.06
2019-05-18T01:25:18.897Z,99192.97
2019-05-18T01:27:47.449Z,99195.86
2019-05-18T01:30:16.651Z,99197.91
2019-05-18T01:32:45.164Z,99194.09
2019-05-18T01:35:14.369Z,99189.09
2019-05-18T01:37:42.930Z,99186.28
2019-05-18T01:40:11.810Z,99185.77
2019-05-18T01:42:40.273Z,99188.86
2019-05-18T01:45:16.910Z,99190.51
2019-05-18T01:47:39.812Z,99184.05
2019-05-18T01:50:09.788Z,99185.14
2019-05-18T01:52:38.222Z,99190.82
2019-05-18T01:55:07.791Z,99187.84
2019-05-18T01:57:36.261Z,99187.84
2019-05-18T02:00:08.572Z,99188.81
2019-05-18T02:02:37.046Z,99189.94
2019-05-18T02:05:06.644Z,99185.25
2019-05-18T02:07:35.092Z,99179.23
2019-05-18T02:10:04.771Z,99184.25
2019-05-18T02:12:33.268Z,99175.14
2019-05-18T02:15:01.732Z,99171.28
2019-05-18T02:17:30.236Z,99174.80
2019-05-18T02:19:58.709Z,99177.26
2019-05-18T02:22:27.155Z,99173.01
2019-05-18T02:24:55.595Z,99170.35
2019-05-18T02:27:24.062Z,99173.08
2019-05-18T02:29:52.571Z,99173.58
2019-05-18T02:32:21.075Z,99169.41
2019-05-18T02:34:49.578Z,99170.65
2019-05-18T02:37:18.036Z,99163.80
2019-05-18T02:39:48.105Z,99161.52
2019-05-18T02:42:16.555Z,99167.39
2019-05-18T02:44:44.986Z,99173.97
2019-05-18T02:47:13.430Z,99174.22
2019-05-18T02:49:41.884Z,99175.16
2019-05-18T02:52:10.332Z,99175.41
2019-05-18T02:54:38.832Z,99176.38
2019-05-18T02:57:07.300Z,99177.57
2019-05-18T02:59:35.802Z,99175.70
2019-05-18T03:02:04.389Z,99178.22
2019-05-18T03:04:32.847Z,99180.88
2019-05-18T03:07:01.426Z,99179.44
2019-05-18T03:09:30.009Z,99178.50
2019-05-18T03:11:58.611Z,99172.59
2019-05-18T03:14:27.103Z,99180.08
2019-05-18T03:16:55.533Z,99178.11
2019-05-18T03:19:24.226Z,99170.06
2019-05-18T03:21:52.719Z,99171.27
2019-05-18T03:24:21.157Z,99164.42
2019-05-18T03:26:49.620Z,99164.83
2019-05-18T03:29:18.115Z,99167.73
2019-05-18T03:31:46.601Z,99173.32
2019-05-18T03:34:15.069Z,99177.42
2019-05-18T03:36:43.563Z,99172.00
2019-05-18T03:39:12.062Z,99170.59
2019-05-18T03:41:40.524Z,99173.08
2019-05-18T03:44:08.955Z,99170.28
2019-05-18T03:46:37.454Z,99173.23
2019-05-18T03:49:05.997Z,99173.38
2019-05-18T03:51:34.437Z,99171.98
2019-05-18T03:54:02.944Z,99169.92
2019-05-18T03:56:31.541Z,99165.75
2019-05-18T03:58:59.975Z,99168.73
2019-05-18T04:01:28.479Z,99164.53
2019-05-18T04:03:57.085Z,99163.03
2019-05-18T04:06:25.522Z,99170.41
2019-05-18T04:08:53.991Z,99176.70
2019-05-18T04:11:22.416Z,99174.06
2019-05-18T04:13:50.876Z,99176.58
2019-05-18T04:16:19.303Z,99177.28
2019-05-18T04:18:47.872Z,99180.20
2019-05-18T04:21:16.308Z,99179.47
2019-05-18T04:23:44.728Z,99184.55
2019-05-18T04:26:13.319Z,99180.48
2019-05-18T04:28:41.769Z,99178.50
2019-05-18T04:31:10.228Z,99181.66
2019-05-18T04:33:38.725Z,99181.27
2019-05-18T04:36:07.228Z,99183.47
2019-05-18T04:38:35.690Z,99186.69
2019-05-18T04:41:04.293Z,99188.46
2019-05-18T04:43:32.728Z,99188.97
2019-05-18T04:46:01.180Z,99192.00
2019-05-18T04:48:29.762Z,99177.43
2019-05-18T04:50:58.193Z,99187.91
2019-05-18T04:53:26.623Z,99182.57
2019-05-18T04:55:55.086Z,99184.80
2019-05-18T04:58:23.547Z,99191.33
2019-05-18T05:00:51.979Z,99193.75
2019-05-18T05:03:20.460Z,99184.00
2019-05-18T05:05:48.895Z,99185.66
2019-05-18T05:08:17.400Z,99187.23
2019-05-18T05:10:45.861Z,99187.09
2019-05-18T05:13:14.294Z,99189.77
2019-05-18T05:15:42.737Z,99191.16
2019-05-18T05:18:11.195Z,99189.12
2019-05-18T05:20:39.697Z,99190.83
2019-05-18T05:23:08.138Z,99191.76
2019-05-18T05:25:36.588Z,99197.12
2019-05-18T05:28:05.169Z,99194.50
2019-05-18T05:30:33.600Z,99193.32
2019-05-18T05:33:02.062Z,99195.88
2019-05-18T05:35:30.485Z,99197.62
2019-05-18T05:37:59.055Z,99205.22
2019-05-18T05:40:27.609Z,99201.32
2019-05-18T05:42:56.039Z,99201.86
2019-05-18T05:45:24.556Z,99206.48
2019-05-18T05:47:53.208Z,99204.64
2019-05-18T05:50:34.590Z,99204.47
2019-05-18T05:52:51.904Z,99206.36
2019-05-18T05:55:20.362Z,99200.05
2019-05-18T05:57:48.793Z,99207.72
2019-05-18T06:00:17.666Z,99209.67
2019-05-18T06:02:46.333Z,99207.38
2019-05-18T06:05:15.417Z,99206.68
2019-05-18T06:07:43.847Z,99209.18
2019-05-18T06:10:12.674Z,99204.45
2019-05-18T06:12:41.111Z,99202.70
2019-05-18T06:15:11.188Z,99211.36
2019-05-18T06:17:39.785Z,99212.38
2019-05-18T06:20:09.252Z,99212.78
2019-05-18T06:22:37.695Z,99211.38
2019-05-18T06:25:07.986Z,99214.87
2019-05-18T06:27:36.539Z,99212.33
2019-05-18T06:30:06.525Z,99215.08
2019-05-18T06:32:35.061Z,99207.87
2019-05-18T06:35:03.727Z,99210.36
2019-05-18T06:37:32.163Z,99218.40
2019-05-18T06:40:00.639Z,99219.00
2019-05-18T06:42:29.138Z,99219.45
2019-05-18T06:44:57.566Z,99224.48
2019-05-18T06:47:26.188Z,99219.51
2019-05-18T06:49:54.644Z,99216.53
2019-05-18T06:52:23.054Z,99222.52
2019-05-18T06:54:51.842Z,99227.38
2019-05-18T06:57:21.166Z,99225.97
2019-05-18T06:59:50.450Z,99221.52
2019-05-18T07:02:18.911Z,99228.88
2019-05-18T07:04:47.340Z,99222.30
2019-05-18T07:07:15.785Z,99224.73
2019-05-18T07:09:44.343Z,99230.47
2019-05-18T07:12:12.870Z,99228.16
2019-05-18T07:14:41.369Z,99230.21
2019-05-18T07:17:09.881Z,99228.11
2019-05-18T07:19:38.399Z,99223.47
2019-05-18T07:22:06.877Z,99223.75
2019-05-18T07:24:35.424Z,99225.87
2019-05-18T07:27:04.004Z,99232.16
2019-05-18T07:29:32.517Z,99226.66
2019-05-18T07:32:01.124Z,99225.98
2019-05-18T07:34:29.529Z,99226.84
2019-05-18T07:36:57.981Z,99222.00
2019-05-18T07:39:26.515Z,99220.87
2019-05-18T07:41:54.963Z,99223.86
2019-05-18T07:44:23.386Z,99226.01
2019-05-18T07:46:51.844Z,99224.84
2019-05-18T07:49:20.267Z,99229.32
2019-05-18T07:51:48.772Z,99223.73
2019-05-18T07:54:17.295Z,99229.30
2019-05-18T07:56:45.745Z,99236.89
2019-05-18T07:59:14.279Z,99235.11
2019-05-18T08:01:42.868Z,99235.01
2019-05-18T08:04:11.495Z,99235.70
2019-05-18T08:06:39.973Z,99230.04
2019-05-18T08:09:09.119Z,99243.98
2019-05-18T08:11:37.581Z,99244.74
2019-05-18T08:14:06.150Z,99234.49
2019-05-18T08:16:34.688Z,99242.06
2019-05-18T08:19:03.186Z,99231.98
2019-05-18T08:21:31.640Z,99234.13
2019-05-18T08:24:00.136Z,99235.47
2019-05-18T08:26:28.590Z,99232.58
2019-05-18T08:28:57.490Z,99236.52
2019-05-18T08:31:25.941Z,99240.44
2019-05-18T08:33:54.376Z,99244.95
2019-05-18T08:36:22.811Z,99246.84
2019-05-18T08:38:51.445Z,99241.23
2019-05-18T08:41:19.879Z,99238.89
2019-05-18T08:43:48.388Z,99240.12
2019-05-18T08:46:16.957Z,99243.89
2019-05-18T08:48:45.456Z,99242.62
2019-05-18T08:51:13.951Z,99241.63
2019-05-18T08:53:42.396Z,99237.41
2019-05-18T08:56:10.840Z,99233.02
2019-05-18T08:58:39.342Z,99234.25
2019-05-18T09:01:07.954Z,99230.50
2019-05-18T09:03:36.503Z,99223.86
2019-05-18T09:06:05.187Z,99222.78
2019-05-18T09:08:33.723Z,99231.60
2019-05-18T09:11:02.239Z,99226.11
2019-05-18T09:13:30.673Z,99213.45
2019-05-18T09:15:59.127Z,99221.09
2019-05-18T09:18:27.560Z,99218.44
2019-05-18T09:20:56.061Z,99222.69
2019-05-18T09:23:24.639Z,99223.11
2019-05-18T09:25:53.155Z,99218.20
2019-05-18T09:28:21.666Z,99215.06
2019-05-18T09:30:50.473Z,99216.06
2019-05-18T09:33:19.078Z,99217.88
2019-05-18T09:35:47.533Z,99214.79
2019-05-18T09:38:15.989Z,99213.48
2019-05-18T09:40:44.417Z,99210.05
2019-05-18T09:43:12.845Z,99214.63
2019-05-18T09:45:41.445Z,99213.30
2019-05-18T09:48:09.951Z,99212.25
2019-05-18T09:50:38.612Z,99210.26
2019-05-18T09:53:07.363Z,99215.30
2019-05-18T09:55:35.923Z,99219.72
2019-05-18T09:58:04.573Z,99215.48
2019-05-18T10:00:38.668Z,99221.31
2019-05-18T10:03:03.410Z,99218.00
2019-05-18T10:05:31.864Z,99219.36
2019-05-18T10:08:00.664Z,99215.08
2019-05-18T10:10:29.199Z,99220.36
2019-05-18T10:12:57.643Z,99219.12
2019-05-18T10:15:26.171Z,99214.89
2019-05-18T10:17:54.599Z,99212.68
2019-05-18T10:20:23.222Z,99210.84
2019-05-18T10:22:59.328Z,99207.55
2019-05-18T10:25:21.787Z,99211.84
2019-05-18T10:27:50.283Z,99206.94
2019-05-18T10:30:20.422Z,99208.61
2019-05-18T10:32:48.854Z,99202.66
2019-05-18T10:35:17.615Z,99202.95
2019-05-18T10:37:46.286Z,99205.66
2019-05-18T10:40:15.475Z,99208.27
2019-05-18T10:42:43.893Z,99205.77
2019-05-18T10:45:13.495Z,99204.88
2019-05-18T10:47:42.068Z,99202.31
2019-05-18T10:50:11.049Z,99201.92
2019-05-18T10:52:39.580Z,99195.15
2019-05-18T10:55:08.894Z,99188.36
2019-05-18T10:57:37.437Z,99191.65
2019-05-18T11:00:10.937Z,99182.86
2019-05-18T11:02:39.467Z,99188.05
2019-05-18T11:05:09.231Z,99186.20
2019-05-18T11:07:37.894Z,99179.63
2019-05-18T11:10:10.877Z,99176.80
2019-05-18T11:12:39.746Z,99185.25
2019-05-18T11:15:09.542Z,99176.02
2019-05-18T11:17:38.105Z,99174.17
2019-05-18T11:20:12.196Z,99165.05
2019-05-18T11:22:41.689Z,99175.29
2019-05-18T11:25:10.699Z,99170.66
2019-05-18T11:27:39.242Z,99171.66
2019-05-18T11:30:09.497Z,99164.66
2019-05-18T11:32:38.251Z,99159.16
2019-05-18T11:35:07.714Z,99158.98
2019-05-18T11:37:36.366Z,99158.50
2019-05-18T11:40:08.585Z,99158.88
2019-05-18T11:42:37.218Z,99154.24
2019-05-18T11:45:08.690Z,99150.75
2019-05-18T11:47:37.198Z,99155.47
2019-05-18T11:50:08.679Z,99148.58
2019-05-18T11:52:37.183Z,99138.93
2019-05-18T11:55:07.048Z,99143.37
2019-05-18T11:57:35.611Z,99140.52
2019-05-18T12:00:08.842Z,99141.73
2019-05-18T12:02:37.430Z,99130.84
2019-05-18T12:05:07.702Z,99137.71
2019-05-18T12:07:36.357Z,99124.85
2019-05-18T12:10:07.017Z,99133.26
2019-05-18T12:12:35.416Z,99127.22
2019-05-18T12:15:07.972Z,99137.12
2019-05-18T12:17:36.671Z,99129.27
2019-05-18T12:20:07.437Z,99123.38
2019-05-18T12:22:36.148Z,99120.23
2019-05-18T12:25:06.844Z,99114.87
2019-05-18T12:27:35.235Z,99114.63
2019-05-18T12:30:05.234Z,99119.00
2019-05-18T12:32:33.654Z,99113.88
2019-05-18T12:35:02.088Z,99116.20
2019-05-18T12:37:30.554Z,99113.38
2019-05-18T12:39:58.978Z,99114.77
2019-05-18T12:42:27.397Z,99109.77
2019-05-18T12:44:56.079Z,99110.34
2019-05-18T12:47:24.522Z,99105.98
2019-05-18T12:49:53.112Z,99110.16
2019-05-18T12:52:21.653Z,99108.61
2019-05-18T12:54:50.084Z,99106.14
2019-05-18T12:57:21.512Z,99101.84
2019-05-18T12:59:49.971Z,99098.10
2019-05-18T13:02:18.466Z,99099.81
2019-05-18T13:04:46.954Z,99101.66
2019-05-18T13:07:15.708Z,99104.42
2019-05-18T13:09:44.162Z,99102.72
2019-05-18T13:12:12.572Z,99098.77
2019-05-18T13:14:41.081Z,99090.42
2019-05-18T13:17:09.523Z,99095.22
2019-05-18T13:19:37.946Z,99093.40
2019-05-18T13:22:06.583Z,99092.50
2019-05-18T13:24:44.731Z,99085.06
2019-05-18T13:27:05.209Z,99085.69
2019-05-18T13:29:33.698Z,99093.48
2019-05-18T13:32:02.106Z,99082.72
2019-05-18T13:34:30.621Z,99084.84
2019-05-18T13:36:59.308Z,99082.73
2019-05-18T13:39:27.753Z,99080.89
2019-05-18T13:41:56.243Z,99074.36
2019-05-18T13:44:24.972Z,99069.13
2019-05-18T13:46:53.386Z,99073.86
2019-05-18T13:49:21.879Z,99071.08
2019-05-18T13:51:50.517Z,99062.27
2019-05-18T13:54:18.951Z,99065.50
2019-05-18T13:56:47.388Z,99067.75
2019-05-18T13:59:15.872Z,99068.69
2019-05-18T14:01:44.309Z,99067.83
2019-05-18T14:04:12.795Z,99066.69
2019-05-18T14:06:41.320Z,99061.84
2019-05-18T14:09:09.845Z,99059.33
2019-05-18T14:11:38.320Z,99054.34
2019-05-18T14:14:06.781Z,99054.53
2019-05-18T14:16:35.238Z,99057.23
2019-05-18T14:19:03.936Z,99055.86
2019-05-18T14:21:32.492Z,99054.75
2019-05-18T14:24:01.002Z,99052.36
2019-05-18T14:26:29.424Z,99046.24
2019-05-18T14:28:58.031Z,99051.20
2019-05-18T14:31:26.550Z,99049.31
2019-05-18T14:33:55.056Z,99049.75
2019-05-18T14:36:23.552Z,99045.45
2019-05-18T14:38:51.985Z,99051.94
2019-05-18T14:41:20.584Z,99043.96
2019-05-18T14:43:49.113Z,99047.61
2019-05-18T14:46:17.616Z,99054.58
2019-05-18T14:48:46.039Z,99053.62
2019-05-18T14:51:14.579Z,99057.48
2019-05-18T14:53:43.108Z,99064.40
2019-05-18T14:56:11.602Z,99055.05
2019-05-18T14:58:40.099Z,99064.71
2019-05-18T15:01:08.527Z,99058.94
2019-05-18T15:03:36.955Z,99059.95
2019-05-18T15:06:05.517Z,99060.14
2019-05-18T15:08:34.017Z,99066.62
2019-05-18T15:11:02.448Z,99068.65
2019-05-18T15:13:30.939Z,99067.58
2019-05-18T15:15:59.391Z,99069.39
2019-05-18T15:18:27.818Z,99068.09
2019-05-18T15:20:56.449Z,99072.39
2019-05-18T15:23:24.896Z,99094.97
2019-05-18T15:25:53.389Z,99057.25
2019-05-18T15:28:21.835Z,99048.71
2019-05-18T15:30:50.416Z,99045.71
2019-05-18T15:33:18.907Z,99039.23
2019-05-18T15:35:47.445Z,99039.33
2019-05-18T15:38:16.021Z,99037.48
2019-05-18T15:40:44.519Z,99042.30
2019-05-18T15:43:13.031Z,99040.88
2019-05-18T15:45:41.650Z,99036.55
2019-05-18T15:48:10.318Z,99030.94
2019-05-18T15:50:39.081Z,99032.10
2019-05-18T15:53:09.562Z,99031.23
2019-05-18T15:55:40.244Z,99040.44
2019-05-18T15:58:15.149Z,99028.98
2019-05-18T16:00:53.579Z,99032.39
2019-05-18T16:03:27.162Z,99021.65
2019-05-18T16:06:00.165Z,99019.27
2019-05-18T16:08:37.258Z,99022.98
2019-05-18T16:11:09.309Z,99019.59
2019-05-18T16:13:39.030Z,99029.05
2019-05-18T16:16:09.509Z,99029.53
2019-05-18T16:18:38.833Z,99020.28
2019-05-18T16:21:12.157Z,99023.89
2019-05-18T16:23:50.146Z,99017.20
2019-05-18T16:26:21.879Z,99016.64
2019-05-18T16:28:52.834Z,99014.10
2019-05-18T16:31:26.227Z,99015.74
2019-05-18T16:34:01.371Z,99020.69
2019-05-18T16:36:30.689Z,99019.94
2019-05-18T16:39:12.111Z,99022.00
2019-05-18T16:41:39.194Z,99022.75
2019-05-18T16:44:16.170Z,99013.05
2019-05-18T16:46:48.338Z,99017.86
2019-05-18T16:49:18.929Z,99014.59
2019-05-18T16:51:52.331Z,99012.91
2019-05-18T16:54:23.896Z,99013.05
2019-05-18T16:56:58.741Z,99014.13
2019-05-18T16:59:34.870Z,99015.79
2019-05-18T17:02:07.067Z,99020.91
2019-05-18T17:04:41.788Z,99018.05
2019-05-18T17:07:16.586Z,99022.01
2019-05-18T17:09:49.862Z,99017.73
2019-05-18T17:12:22.592Z,99030.42
2019-05-18T17:14:54.011Z,99027.16
2019-05-18T17:17:24.132Z,99032.11
2019-05-18T17:19:54.698Z,99034.80
2019-05-18T17:22:25.294Z,99034.05
2019-05-18T17:25:09.853Z,99034.39
2019-05-18T17:27:39.050Z,99035.12
2019-05-18T17:30:09.903Z,99032.11
2019-05-18T17:32:40.434Z,99039.73
2019-05-18T17:35:12.730Z,99035.25
2019-05-18T17:37:43.012Z,99041.65
2019-05-18T17:40:14.549Z,99043.72
2019-05-18T17:42:46.739Z,99049.66
2019-05-18T17:45:21.488Z,99046.34
2019-05-18T17:47:52.786Z,99047.55
2019-05-18T17:50:23.522Z,99048.84
2019-05-18T17:52:55.403Z,99046.89
2019-05-18T17:55:25.910Z,99053.64
2019-05-18T17:58:01.717Z,99053.99
2019-05-18T18:00:38.438Z,99055.19
2019-05-18T18:03:13.247Z,99063.89
2019-05-18T18:05:42.568Z,99060.41
2019-05-18T18:08:18.144Z,99061.08
2019-05-18T18:11:01.635Z,99063.13
2019-05-18T18:13:36.714Z,99061.27
2019-05-18T18:16:09.267Z,99063.55
2019-05-18T18:18:44.506Z,99061.74
2019-05-18T18:21:25.892Z,99066.01
2019-05-18T18:23:59.179Z,99071.71
2019-05-18T18:26:33.207Z,99075.12
2019-05-18T18:29:10.376Z,99072.63
2019-05-18T18:31:48.887Z,99076.12
2019-05-18T18:34:27.205Z,99081.29
2019-05-18T18:36:58.852Z,99089.65
2019-05-18T18:39:32.047Z,99121.48
2019-05-18T18:42:06.457Z,99162.76
2019-05-18T18:44:39.243Z,99185.17
2019-05-18T18:47:16.708Z,99183.09
2019-05-18T18:49:55.757Z,99188.94
2019-05-18T18:52:37.756Z,99202.25
2019-05-18T18:55:16.372Z,99217.84
2019-05-18T18:57:49.763Z,99226.25
2019-05-18T19:00:20.145Z,99235.53
2019-05-18T19:02:52.153Z,99236.73
2019-05-18T19:05:26.162Z,99231.96
2019-05-18T19:07:56.998Z,99204.46
2019-05-18T19:10:31.003Z,99163.94
2019-05-18T19:13:08.394Z,99177.08
2019-05-18T19:15:39.432Z,99176.56
2019-05-18T19:18:14.570Z,99181.96
2019-05-18T19:20:44.742Z,99185.72
2019-05-18T19:23:18.430Z,99195.42
2019-05-18T19:25:52.804Z,99210.55
2019-05-18T19:28:25.849Z,99209.52
2019-05-18T19:31:03.275Z,99201.78
2019-05-18T19:33:43.594Z,99208.47
2019-05-18T19:36:15.252Z,99209.12
2019-05-18T19:38:51.015Z,99225.91
2019-05-18T19:41:24.909Z,99232.87
2019-05-18T19:43:56.812Z,99252.84
2019-05-18T19:46:29.991Z,99266.02
2019-05-18T19:49:04.018Z,99269.58
2019-05-18T19:51:33.521Z,99272.13
2019-05-18T19:54:04.217Z,99273.12
2019-05-18T19:56:40.781Z,99272.37
2019-05-18T19:59:09.180Z,99266.02
2019-05-18T20:01:39.883Z,99262.61
2019-05-18T20:04:11.682Z,99258.94
2019-05-18T20:06:42.098Z,99259.69
2019-05-18T20:09:17.029Z,99262.55
2019-05-18T20:11:50.195Z,99263.22
2019-05-18T20:14:24.323Z,99252.69
2019-05-18T20:16:53.723Z,99247.88
2019-05-18T20:19:38.248Z,99248.92
2019-05-18T20:21:57.453Z,99242.27
2019-05-18T20:24:31.154Z,99245.28
2019-05-18T20:27:01.781Z,99245.27
2019-05-18T20:29:33.331Z,99246.78
2019-05-18T20:32:03.952Z,99248.39
2019-05-18T20:34:33.157Z,99255.99
2019-05-18T20:37:19.772Z,99252.81
2019-05-18T20:39:41.380Z,99244.20
2019-05-18T20:42:12.114Z,99248.21
2019-05-18T20:44:42.594Z,99248.88
2019-05-18T20:47:11.941Z,99254.55
2019-05-18T20:49:42.369Z,99258.54
2019-05-18T20:52:13.914Z,99263.73
2019-05-18T20:54:43.215Z,99267.16
2019-05-18T20:57:12.420Z,99279.16
2019-05-18T20:59:43.000Z,99285.50
2019-05-18T21:02:16.401Z,99284.11
2019-05-18T21:04:46.224Z,99284.61
2019-05-18T21:07:16.004Z,99279.77
2019-05-18T21:09:48.240Z,99267.16
2019-05-18T21:12:18.543Z,99253.39
2019-05-18T21:14:49.582Z,99250.03
2019-05-18T21:17:22.139Z,99245.80
2019-05-18T21:19:55.964Z,99244.13
2019-05-18T21:22:28.128Z,99243.33
2019-05-18T21:24:59.269Z,99231.08
2019-05-18T21:27:29.489Z,99221.19
2019-05-18T21:30:00.005Z,99216.03
2019-05-18T21:32:34.435Z,99208.45
2019-05-18T21:35:08.341Z,99203.44
2019-05-18T21:37:43.176Z,99198.80
2019-05-18T21:40:16.505Z,99194.27
2019-05-18T21:42:48.109Z,99198.28
2019-05-18T21:45:21.203Z,99200.55
2019-05-18T21:47:51.728Z,99202.20
2019-05-18T21:50:25.228Z,99197.70
2019-05-18T21:53:02.006Z,99198.02
2019-05-18T21:55:37.652Z,99199.07
2019-05-18T21:58:12.179Z,99194.63
2019-05-18T22:00:47.511Z,99200.68
2019-05-18T22:03:21.026Z,99203.16
2019-05-18T22:05:51.954Z,99194.97
2019-05-18T22:08:25.217Z,99195.64
2019-05-18T22:10:56.392Z,99200.52
2019-05-18T22:13:32.804Z,99199.66
2019-05-18T22:16:09.234Z,99196.70
2019-05-18T22:18:41.470Z,99186.75
2019-05-18T22:21:11.922Z,99188.52
2019-05-18T22:23:42.113Z,99181.14
2019-05-18T22:26:13.494Z,99174.44
2019-05-18T22:28:43.381Z,99183.80
2019-05-18T22:31:15.262Z,99175.02
2019-05-18T22:33:45.236Z,99181.14
2019-05-18T22:36:15.869Z,99178.39
2019-05-18T22:38:55.561Z,99178.33
2019-05-18T22:41:28.306Z,99180.52
2019-05-18T22:43:59.231Z,99177.22
2019-05-18T22:46:33.866Z,99184.77
2019-05-18T22:49:04.419Z,99179.63
2019-05-18T22:51:43.843Z,99178.93
2019-05-18T22:54:19.272Z,99173.03
2019-05-18T22:56:53.333Z,99175.92
2019-05-18T22:59:28.954Z,99174.62
2019-05-18T23:02:05.605Z,99175.65
2019-05-18T23:04:38.789Z,99174.21
2019-05-18T23:07:07.888Z,99175.00
2019-05-18T23:09:39.640Z,99172.83
2019-05-18T23:12:13.881Z,99168.52
2019-05-18T23:14:58.950Z,99161.77
2019-05-18T23:17:25.875Z,99164.44
2019-05-18T23:19:56.188Z,99168.46
2019-05-18T23:22:29.482Z,99162.55
2019-05-18T23:25:05.610Z,99161.02
2019-05-18T23:27:36.788Z,99155.96
2019-05-18T23:30:13.892Z,99170.36
2019-05-18T23:32:44.823Z,99163.41
2019-05-18T23:35:18.222Z,99170.16
2019-05-18T23:37:52.070Z,99162.62
2019-05-18T23:40:26.655Z,99163.27
2019-05-18T23:42:56.844Z,99160.23
2019-05-18T23:45:38.073Z,99163.08
2019-05-18T23:48:14.898Z,99165.79
2019-05-18T23:50:47.981Z,99164.50
2019-05-18T23:53:24.755Z,99156.42
2019-05-18T23:56:07.571Z,99157.20
2019-05-18T23:58:42.225Z,99158.16
